createdAt,value
2019-03-28T00:00:11.202Z,15.88
2019-03-28T00:02:42.152Z,17.05
2019-03-28T00:05:11.694Z,18.23
2019-03-28T00:07:41.101Z,16.02
2019-03-28T00:10:10.428Z,16.25
2019-03-28T00:12:40.243Z,18.40
2019-03-28T00:15:09.760Z,15.23
2019-03-28T00:17:39.472Z,17.25
2019-03-28T00:20:10.086Z,16.62
2019-03-28T00:22:41.059Z,15.90
2019-03-28T00:25:14.713Z,18.00
2019-03-28T00:27:44.286Z,14.05
2019-03-28T00:30:15.129Z,14.38
2019-03-28T00:32:44.731Z,13.60
2019-03-28T00:35:14.056Z,15.63
2019-03-28T00:37:43.388Z,18.30
2019-03-28T00:40:12.779Z,15.38
2019-03-28T00:42:42.104Z,18.10
2019-03-28T00:45:12.474Z,13.43
2019-03-28T00:47:41.886Z,13.72
2019-03-28T00:50:11.848Z,13.88
2019-03-28T00:52:41.404Z,15.50
2019-03-28T00:55:11.323Z,15.20
2019-03-28T00:57:40.731Z,11.28
2019-03-28T01:00:10.834Z,14.80
2019-03-28T01:02:40.156Z,16.48
2019-03-28T01:05:09.555Z,16.60
2019-03-28T01:07:39.143Z,17.07
2019-03-28T01:10:08.641Z,12.53
2019-03-28T01:12:38.935Z,13.88
2019-03-28T01:15:08.909Z,16.32
2019-03-28T01:17:38.228Z,15.63
2019-03-28T01:20:08.897Z,15.65
2019-03-28T01:22:38.240Z,17.30
2019-03-28T01:25:07.806Z,14.35
2019-03-28T01:27:37.156Z,13.80
2019-03-28T01:30:08.125Z,13.20
2019-03-28T01:32:37.698Z,15.90
2019-03-28T01:35:07.200Z,19.05
2019-03-28T01:37:36.530Z,16.60
2019-03-28T01:40:06.800Z,14.83
2019-03-28T01:42:36.125Z,13.58
2019-03-28T01:45:08.481Z,16.32
2019-03-28T01:47:38.749Z,14.30
2019-03-28T01:50:08.320Z,13.83
2019-03-28T01:52:37.645Z,13.08
2019-03-28T01:55:07.952Z,15.63
2019-03-28T01:57:37.278Z,14.33
2019-03-28T02:00:09.143Z,12.50
2019-03-28T02:02:38.531Z,13.95
2019-03-28T02:05:08.233Z,13.72
2019-03-28T02:07:37.653Z,11.03
2019-03-28T02:10:07.424Z,11.85
2019-03-28T02:12:36.753Z,12.82
2019-03-28T02:15:09.204Z,12.35
2019-03-28T02:17:38.673Z,10.45
2019-03-28T02:20:10.431Z,12.98
2019-03-28T02:22:40.407Z,18.15
2019-03-28T02:25:10.094Z,13.28
2019-03-28T02:27:40.015Z,12.70
2019-03-28T02:30:10.314Z,15.05
2019-03-28T02:32:39.615Z,11.85
2019-03-28T02:35:09.623Z,14.25
2019-03-28T02:37:39.200Z,19.65
2019-03-28T02:40:08.692Z,13.30
2019-03-28T02:42:38.085Z,15.28
2019-03-28T02:45:08.043Z,16.55
2019-03-28T02:47:37.355Z,12.95
2019-03-28T02:50:08.318Z,14.63
2019-03-28T02:52:38.746Z,16.25
2019-03-28T02:55:08.122Z,15.75
2019-03-28T02:57:41.645Z,13.68
2019-03-28T03:00:09.466Z,17.02
2019-03-28T03:02:38.981Z,11.15
2019-03-28T03:05:09.001Z,15.58
2019-03-28T03:07:38.335Z,17.62
2019-03-28T03:10:08.006Z,18.05
2019-03-28T03:12:37.592Z,14.30
2019-03-28T03:15:07.838Z,14.60
2019-03-28T03:17:37.199Z,18.40
2019-03-28T03:20:08.636Z,14.85
2019-03-28T03:22:37.978Z,15.43
2019-03-28T03:25:08.312Z,16.52
2019-03-28T03:27:37.652Z,14.55
2019-03-28T03:30:08.499Z,16.37
2019-03-28T03:32:37.917Z,15.75
2019-03-28T03:35:07.692Z,15.05
2019-03-28T03:37:37.107Z,20.10
2019-03-28T03:40:08.483Z,17.80
2019-03-28T03:42:37.802Z,16.40
2019-03-28T03:45:09.610Z,13.85
2019-03-28T03:47:39.117Z,15.75
2019-03-28T03:50:09.075Z,17.32
2019-03-28T03:52:38.416Z,20.17
2019-03-28T03:55:07.899Z,16.73
2019-03-28T03:57:37.228Z,18.40
2019-03-28T04:00:07.399Z,17.62
2019-03-28T04:02:36.948Z,17.70
2019-03-28T04:05:07.307Z,19.80
2019-03-28T04:07:36.629Z,16.60
2019-03-28T04:10:06.724Z,17.02
2019-03-28T04:12:36.185Z,19.30
2019-03-28T04:15:06.429Z,19.55
2019-03-28T04:17:35.800Z,21.10
2019-03-28T04:20:06.634Z,18.62
2019-03-28T04:22:37.036Z,17.87
2019-03-28T04:25:08.220Z,19.95
2019-03-28T04:27:37.758Z,18.52
2019-03-28T04:30:08.223Z,18.85
2019-03-28T04:32:37.562Z,22.42
2019-03-28T04:35:07.140Z,24.02
2019-03-28T04:37:36.514Z,20.05
2019-03-28T04:40:08.517Z,24.18
2019-03-28T04:42:38.305Z,19.55
2019-03-28T04:45:07.875Z,19.52
2019-03-28T04:47:37.205Z,23.83
2019-03-28T04:50:07.867Z,21.37
2019-03-28T04:52:37.205Z,22.58
2019-03-28T04:55:06.976Z,25.48
2019-03-28T04:57:36.320Z,25.08
2019-03-28T05:00:07.635Z,21.12
2019-03-28T05:02:36.910Z,20.97
2019-03-28T05:05:07.187Z,20.85
2019-03-28T05:07:36.517Z,22.62
2019-03-28T05:10:08.366Z,23.98
2019-03-28T05:12:37.697Z,23.07
2019-03-28T05:15:08.491Z,25.48
2019-03-28T05:17:37.818Z,22.32
2019-03-28T05:20:07.684Z,22.20
2019-03-28T05:22:37.037Z,22.60
2019-03-28T05:25:06.804Z,24.45
2019-03-28T05:27:37.112Z,21.55
2019-03-28T05:30:10.729Z,23.80
2019-03-28T05:32:40.058Z,23.38
2019-03-28T05:35:09.634Z,23.70
2019-03-28T05:37:39.585Z,25.27
2019-03-28T05:40:09.988Z,21.82
2019-03-28T05:42:39.618Z,20.72
2019-03-28T05:45:09.388Z,23.80
2019-03-28T05:47:38.721Z,24.00
2019-03-28T05:50:08.890Z,21.05
2019-03-28T05:52:38.230Z,21.52
2019-03-28T05:55:08.008Z,23.98
2019-03-28T05:57:37.360Z,24.57
2019-03-28T06:00:08.810Z,26.90
2019-03-28T06:02:38.214Z,23.70
2019-03-28T06:05:07.798Z,27.13
2019-03-28T06:07:37.123Z,22.17
2019-03-28T06:10:07.783Z,23.65
2019-03-28T06:12:37.115Z,23.87
2019-03-28T06:15:09.941Z,22.87
2019-03-28T06:17:39.266Z,28.70
2019-03-28T06:20:09.333Z,26.55
2019-03-28T06:22:39.574Z,20.88
2019-03-28T06:25:09.258Z,28.40
2019-03-28T06:27:38.910Z,29.72
2019-03-28T06:30:09.483Z,23.98
2019-03-28T06:32:43.269Z,22.58
2019-03-28T06:35:10.404Z,31.60
2019-03-28T06:37:39.732Z,25.08
2019-03-28T06:40:09.818Z,22.60
2019-03-28T06:42:39.150Z,27.25
2019-03-28T06:45:09.233Z,24.15
2019-03-28T06:47:38.578Z,24.32
2019-03-28T06:50:09.034Z,23.47
2019-03-28T06:52:38.363Z,23.70
2019-03-28T06:55:07.924Z,24.50
2019-03-28T06:57:37.260Z,26.00
2019-03-28T07:00:09.079Z,26.05
2019-03-28T07:02:38.404Z,23.80
2019-03-28T07:05:08.274Z,27.58
2019-03-28T07:07:38.176Z,27.85
2019-03-28T07:10:07.744Z,22.80
2019-03-28T07:12:37.083Z,26.15
2019-03-28T07:15:08.358Z,25.80
2019-03-28T07:17:37.759Z,26.90
2019-03-28T07:20:09.221Z,26.57
2019-03-28T07:22:38.783Z,25.82
2019-03-28T07:25:08.762Z,30.90
2019-03-28T07:27:38.167Z,29.55
2019-03-28T07:30:10.551Z,28.25
2019-03-28T07:32:43.126Z,31.80
2019-03-28T07:35:11.463Z,30.12
2019-03-28T07:37:40.975Z,28.40
2019-03-28T07:40:10.880Z,27.40
2019-03-28T07:42:40.222Z,26.62
2019-03-28T07:45:10.866Z,30.43
2019-03-28T07:47:40.203Z,31.70
2019-03-28T07:50:11.890Z,28.07
2019-03-28T07:52:41.265Z,30.20
2019-03-28T07:55:10.836Z,30.30
2019-03-28T07:57:40.179Z,35.17
2019-03-28T08:00:12.228Z,36.55
2019-03-28T08:02:41.596Z,31.77
2019-03-28T08:05:11.667Z,36.48
2019-03-28T08:07:45.337Z,36.03
2019-03-28T08:10:13.582Z,40.75
2019-03-28T08:12:43.338Z,34.73
2019-03-28T08:15:14.562Z,36.83
2019-03-28T08:17:43.970Z,38.20
2019-03-28T08:20:13.937Z,39.98
2019-03-28T08:22:43.534Z,38.38
2019-03-28T08:25:14.064Z,38.92
2019-03-28T08:27:43.592Z,41.80
2019-03-28T08:30:18.743Z,38.10
2019-03-28T08:35:15.246Z,37.85
2019-03-28T08:37:44.777Z,44.88
2019-03-28T08:40:17.414Z,40.88
2019-03-28T08:42:47.498Z,39.83
2019-03-28T08:45:16.938Z,37.93
2019-03-28T08:47:46.292Z,43.78
2019-03-28T08:50:15.688Z,35.03
2019-03-28T08:52:45.028Z,39.50
2019-03-28T08:55:14.802Z,36.70
2019-03-28T08:57:44.215Z,40.10
2019-03-28T09:00:16.642Z,36.93
2019-03-28T09:02:44.847Z,37.83
2019-03-28T09:05:14.183Z,35.75
2019-03-28T09:07:43.527Z,34.95
2019-03-28T09:10:12.930Z,36.42
2019-03-28T09:12:42.274Z,30.17
2019-03-28T09:15:11.951Z,36.93
2019-03-28T09:17:42.513Z,34.10
2019-03-28T09:20:12.385Z,36.10
2019-03-28T09:22:41.732Z,40.17
2019-03-28T09:25:12.402Z,35.83
2019-03-28T09:27:41.932Z,33.90
2019-03-28T09:30:12.021Z,34.25
2019-03-28T09:32:41.367Z,37.85
2019-03-28T09:35:11.238Z,30.95
2019-03-28T09:37:40.585Z,32.25
2019-03-28T09:40:10.141Z,36.70
2019-03-28T09:42:39.465Z,34.38
2019-03-28T09:45:09.252Z,33.78
2019-03-28T09:47:39.650Z,34.25
2019-03-28T09:50:09.425Z,28.77
2019-03-28T09:52:38.759Z,27.10
2019-03-28T09:55:08.095Z,27.95
2019-03-28T09:57:37.435Z,27.42
2019-03-28T10:00:11.746Z,32.45
2019-03-28T10:02:43.950Z,29.77
2019-03-28T10:05:12.284Z,31.42
2019-03-28T10:07:41.641Z,30.37
2019-03-28T10:10:11.415Z,26.80
2019-03-28T10:12:43.870Z,28.50
2019-03-28T10:15:12.341Z,27.90
2019-03-28T10:17:42.559Z,38.63
2019-03-28T10:20:12.199Z,31.17
2019-03-28T10:22:41.540Z,27.42
2019-03-28T10:25:12.728Z,27.02
2019-03-28T10:27:42.702Z,26.60
2019-03-28T10:30:13.082Z,26.52
2019-03-28T10:32:42.420Z,22.10
2019-03-28T10:35:14.803Z,24.30
2019-03-28T10:37:44.146Z,23.22
2019-03-28T10:40:13.486Z,23.55
2019-03-28T10:42:42.823Z,22.55
2019-03-28T10:45:12.226Z,19.98
2019-03-28T10:47:41.564Z,20.88
2019-03-28T10:50:11.722Z,25.60
2019-03-28T10:52:41.846Z,17.82
2019-03-28T10:55:11.182Z,18.60
2019-03-28T10:57:40.510Z,14.30
2019-03-28T11:00:23.134Z,13.20
2019-03-28T11:02:41.317Z,15.23
2019-03-28T11:05:11.017Z,12.23
2019-03-28T11:07:40.622Z,14.35
2019-03-28T11:10:10.031Z,13.58
2019-03-28T11:12:39.355Z,13.62
2019-03-28T11:15:09.729Z,19.55
2019-03-28T11:17:40.135Z,16.95
2019-03-28T11:20:09.883Z,18.25
2019-03-28T11:22:39.345Z,19.57
2019-03-28T11:25:09.020Z,21.30
2019-03-28T11:27:38.355Z,17.48
2019-03-28T11:30:09.342Z,17.50
2019-03-28T11:32:38.675Z,15.93
2019-03-28T11:35:08.352Z,17.35
2019-03-28T11:37:37.979Z,14.18
2019-03-28T11:40:09.640Z,16.73
2019-03-28T11:42:40.175Z,15.75
2019-03-28T11:45:10.647Z,15.68
2019-03-28T11:47:39.996Z,10.72
2019-03-28T11:50:10.361Z,13.48
2019-03-28T11:52:42.528Z,16.37
2019-03-28T11:55:10.970Z,16.37
2019-03-28T11:57:40.303Z,15.23
2019-03-28T12:00:13.258Z,13.05
2019-03-28T12:02:42.589Z,15.23
2019-03-28T12:05:12.961Z,15.93
2019-03-28T12:07:42.291Z,14.70
2019-03-28T12:10:12.410Z,14.43
2019-03-28T12:12:41.858Z,14.28
2019-03-28T12:15:12.028Z,14.13
2019-03-28T12:17:41.362Z,14.95
2019-03-28T12:20:12.029Z,14.45
2019-03-28T12:22:41.346Z,15.98
2019-03-28T12:25:11.083Z,12.35
2019-03-28T12:27:40.419Z,14.07
2019-03-28T12:30:15.735Z,18.57
2019-03-28T12:32:44.121Z,14.68
2019-03-28T12:35:13.588Z,15.38
2019-03-28T12:37:42.928Z,15.32
2019-03-28T12:40:12.599Z,16.25
2019-03-28T12:42:41.934Z,13.48
2019-03-28T12:45:12.349Z,14.68
2019-03-28T12:47:43.142Z,15.48
2019-03-28T12:50:13.643Z,11.93
2019-03-28T12:52:42.976Z,21.15
2019-03-28T12:55:12.844Z,15.65
2019-03-28T12:57:42.186Z,12.88
2019-03-28T13:00:12.856Z,15.98
2019-03-28T13:02:42.200Z,15.20
2019-03-28T13:05:11.857Z,13.18
2019-03-28T13:07:41.193Z,15.25
2019-03-28T13:10:11.925Z,17.67
2019-03-28T13:12:41.277Z,17.50
2019-03-28T13:15:10.943Z,15.20
2019-03-28T13:17:40.305Z,20.82
2019-03-28T13:20:10.282Z,17.15
2019-03-28T13:22:39.619Z,14.10
2019-03-28T13:25:09.393Z,21.90
2019-03-28T13:27:38.740Z,17.25
2019-03-28T13:30:13.415Z,15.80
2019-03-28T13:32:42.861Z,14.18
2019-03-28T13:35:12.742Z,11.68
2019-03-28T13:37:42.091Z,15.28
2019-03-28T13:40:12.635Z,11.53
2019-03-28T13:42:42.011Z,15.63
2019-03-28T13:45:12.484Z,16.82
2019-03-28T13:47:41.829Z,16.80
2019-03-28T13:50:12.294Z,14.40
2019-03-28T13:52:41.626Z,15.58
2019-03-28T13:55:11.226Z,14.13
2019-03-28T13:57:43.254Z,14.20
2019-03-28T14:00:12.234Z,13.30
2019-03-28T14:02:54.650Z,12.18
2019-03-28T14:05:13.274Z,11.20
2019-03-28T14:07:42.656Z,13.22
2019-03-28T14:10:12.446Z,14.03
2019-03-28T14:12:42.064Z,12.63
2019-03-28T14:15:11.638Z,15.10
2019-03-28T14:17:40.972Z,12.82
2019-03-28T14:20:11.341Z,14.05
2019-03-28T14:22:41.009Z,14.65
2019-03-28T14:25:10.722Z,13.43
2019-03-28T14:27:40.051Z,12.37
2019-03-28T14:30:11.661Z,13.50
2019-03-28T14:32:52.377Z,12.78
2019-03-28T14:35:12.161Z,11.43
2019-03-28T14:37:41.546Z,11.68
2019-03-28T14:40:11.106Z,14.10
2019-03-28T14:42:41.188Z,12.88
2019-03-28T14:45:12.219Z,12.15
2019-03-28T14:47:42.105Z,10.72
2019-03-28T14:50:12.382Z,12.80
2019-03-28T14:52:42.044Z,12.90
2019-03-28T14:55:11.550Z,13.10
2019-03-28T14:57:41.145Z,14.23
2019-03-28T15:00:16.454Z,14.43
2019-03-28T15:02:45.791Z,17.92
2019-03-28T15:05:15.131Z,15.32
2019-03-28T15:07:44.456Z,14.60
2019-03-28T15:10:13.904Z,14.85
2019-03-28T15:12:43.234Z,14.15
2019-03-28T15:15:12.942Z,10.13
2019-03-28T15:17:44.883Z,13.38
2019-03-28T15:20:13.380Z,12.07
2019-03-28T15:22:42.709Z,11.48
2019-03-28T15:25:12.215Z,12.40
2019-03-28T15:27:41.798Z,12.35
2019-03-28T15:30:11.382Z,12.10
2019-03-28T15:32:40.731Z,13.70
2019-03-28T15:35:10.227Z,12.70
2019-03-28T15:37:40.014Z,11.05
2019-03-28T15:40:09.664Z,11.30
2019-03-28T15:42:39.061Z,14.50
2019-03-28T15:45:08.881Z,12.05
2019-03-28T15:47:38.281Z,15.05
2019-03-28T15:50:08.154Z,13.58
2019-03-28T15:52:37.495Z,13.43
2019-03-28T15:55:07.635Z,12.43
2019-03-28T15:57:37.163Z,12.98
2019-03-28T16:00:10.628Z,12.93
2019-03-28T16:02:40.129Z,12.75
2019-03-28T16:05:09.717Z,14.25
2019-03-28T16:07:39.042Z,15.10
2019-03-28T16:10:09.006Z,14.00
2019-03-28T16:12:39.756Z,16.90
2019-03-28T16:15:09.331Z,14.90
2019-03-28T16:17:38.783Z,13.50
2019-03-28T16:20:09.005Z,13.43
2019-03-28T16:22:38.366Z,10.38
2019-03-28T16:25:07.870Z,13.80
2019-03-28T16:27:37.291Z,13.00
2019-03-28T16:30:09.228Z,12.03
2019-03-28T16:32:38.563Z,11.53
2019-03-28T16:35:08.332Z,10.98
2019-03-28T16:37:37.686Z,15.58
2019-03-28T16:40:07.862Z,12.13
2019-03-28T16:42:37.222Z,12.85
2019-03-28T16:45:08.125Z,13.98
2019-03-28T16:47:39.132Z,14.93
2019-03-28T16:50:08.799Z,15.48
2019-03-28T16:52:38.197Z,15.25
2019-03-28T16:55:08.268Z,12.18
2019-03-28T16:57:37.606Z,13.88
2019-03-28T17:00:17.066Z,12.40
2019-03-28T17:02:46.578Z,18.20
2019-03-28T17:05:15.979Z,24.25
2019-03-28T17:07:45.389Z,16.82
2019-03-28T17:10:23.981Z,17.48
2019-03-28T17:12:53.374Z,14.13
2019-03-28T17:15:25.731Z,14.07
2019-03-28T17:17:53.744Z,11.53
2019-03-28T17:20:23.077Z,12.15
2019-03-28T17:22:52.419Z,13.48
2019-03-28T17:25:21.768Z,16.32
2019-03-28T17:27:51.109Z,12.45
2019-03-28T17:30:20.442Z,10.45
2019-03-28T17:32:49.788Z,12.82
2019-03-28T17:35:19.110Z,18.37
2019-03-28T17:37:48.480Z,22.93
2019-03-28T17:40:17.814Z,17.20
2019-03-28T17:42:47.983Z,45.88
2019-03-28T17:45:17.706Z,18.42
2019-03-28T17:47:47.066Z,21.35
2019-03-28T17:50:17.548Z,22.48
2019-03-28T17:52:46.887Z,18.65
2019-03-28T17:55:19.490Z,15.45
2019-03-28T17:57:47.588Z,15.40
2019-03-28T18:00:17.096Z,17.80
2019-03-28T18:02:46.733Z,15.48
2019-03-28T18:05:16.241Z,18.90
2019-03-28T18:07:45.639Z,38.42
2019-03-28T18:10:16.014Z,39.23
2019-03-28T18:12:45.407Z,24.35
2019-03-28T18:15:15.558Z,19.12
2019-03-28T18:17:45.089Z,19.25
2019-03-28T18:20:14.895Z,17.30
2019-03-28T18:22:44.238Z,19.85
2019-03-28T18:25:14.016Z,19.77
2019-03-28T18:27:43.831Z,17.55
2019-03-28T18:30:13.805Z,17.00
2019-03-28T18:32:43.143Z,17.23
2019-03-28T18:35:12.719Z,16.10
2019-03-28T18:37:42.057Z,17.12
2019-03-28T18:40:12.078Z,17.02
2019-03-28T18:42:41.410Z,18.02
2019-03-28T18:45:12.761Z,17.60
2019-03-28T18:47:42.314Z,19.12
2019-03-28T18:50:11.931Z,18.32
2019-03-28T18:52:41.268Z,16.60
2019-03-28T18:55:11.060Z,19.42
2019-03-28T18:57:40.385Z,16.87
2019-03-28T19:00:10.265Z,15.83
2019-03-28T19:02:39.670Z,15.03
2019-03-28T19:05:19.834Z,13.60
2019-03-28T19:07:40.125Z,16.73
2019-03-28T19:10:10.316Z,20.77
2019-03-28T19:12:39.644Z,15.08
2019-03-28T19:15:09.633Z,20.02
2019-03-28T19:17:38.980Z,18.32
2019-03-28T19:20:09.896Z,19.20
2019-03-28T19:22:39.705Z,18.55
2019-03-28T19:25:10.569Z,18.62
2019-03-28T19:27:39.910Z,15.43
2019-03-28T19:30:10.595Z,15.43
2019-03-28T19:32:39.928Z,17.92
2019-03-28T19:35:10.400Z,18.82
2019-03-28T19:37:40.692Z,19.77
2019-03-28T19:40:11.941Z,17.55
2019-03-28T19:42:41.277Z,18.10
2019-03-28T19:45:10.953Z,19.82
2019-03-28T19:47:40.286Z,17.98
2019-03-28T19:50:11.534Z,22.32
2019-03-28T19:52:40.867Z,26.27
2019-03-28T19:55:13.258Z,29.32
2019-03-28T19:57:42.657Z,34.45
2019-03-28T20:00:12.071Z,35.68
2019-03-28T20:02:41.407Z,36.53
2019-03-28T20:05:10.985Z,36.95
2019-03-28T20:07:40.322Z,35.95
2019-03-28T20:10:16.229Z,39.88
2019-03-28T20:12:41.018Z,41.55
2019-03-28T20:15:10.962Z,47.67
2019-03-28T20:17:40.367Z,45.00
2019-03-28T20:20:09.981Z,46.75
2019-03-28T20:22:39.329Z,48.02
2019-03-28T20:25:08.993Z,47.48
2019-03-28T20:27:38.344Z,49.55
2019-03-28T20:30:09.266Z,50.88
2019-03-28T20:32:38.696Z,49.60
2019-03-28T20:35:10.464Z,50.12
2019-03-28T20:37:39.796Z,48.15
2019-03-28T20:40:10.697Z,52.27
2019-03-28T20:42:40.041Z,50.85
2019-03-28T20:45:10.823Z,47.45
2019-03-28T20:47:40.520Z,45.90
2019-03-28T20:50:10.703Z,50.67
2019-03-28T20:52:40.046Z,47.15
2019-03-28T20:55:09.730Z,47.10
2019-03-28T20:57:40.552Z,50.48
2019-03-28T21:00:10.611Z,49.33
2019-03-28T21:02:40.289Z,51.20
2019-03-28T21:05:10.364Z,52.23
2019-03-28T21:07:39.870Z,51.70
2019-03-28T21:10:13.225Z,50.45
2019-03-28T21:12:43.728Z,51.18
2019-03-28T21:15:13.173Z,49.53
2019-03-28T21:17:42.518Z,46.60
2019-03-28T21:20:12.189Z,49.77
2019-03-28T21:22:43.017Z,48.63
2019-03-28T21:25:12.355Z,53.17
2019-03-28T21:27:41.688Z,49.35
2019-03-28T21:30:11.191Z,51.63
2019-03-28T21:32:40.594Z,47.08
2019-03-28T21:35:10.198Z,49.18
2019-03-28T21:37:39.516Z,48.45
2019-03-28T21:40:09.380Z,56.10
2019-03-28T21:42:38.824Z,52.20
2019-03-28T21:45:08.765Z,53.28
2019-03-28T21:47:38.180Z,52.38
2019-03-28T21:50:08.006Z,53.70
2019-03-28T21:52:37.337Z,57.03
2019-03-28T21:55:07.702Z,60.58
2019-03-28T21:57:38.149Z,60.20
2019-03-28T22:00:08.589Z,60.48
2019-03-28T22:02:38.278Z,64.37
2019-03-28T22:05:07.870Z,66.33
2019-03-28T22:07:37.256Z,65.75
2019-03-28T22:10:10.085Z,61.10
2019-03-28T22:12:39.424Z,60.00
2019-03-28T22:15:09.192Z,68.52
2019-03-28T22:17:38.530Z,62.23
2019-03-28T22:20:07.858Z,63.78
2019-03-28T22:22:37.198Z,63.70
2019-03-28T22:25:07.867Z,61.90
2019-03-28T22:27:37.217Z,62.33
2019-03-28T22:30:08.613Z,65.15
2019-03-28T22:32:37.922Z,63.95
2019-03-28T22:35:08.387Z,68.78
2019-03-28T22:37:37.732Z,63.98
2019-03-28T22:40:11.726Z,63.58
2019-03-28T22:42:40.201Z,63.28
2019-03-28T22:45:12.169Z,65.78
2019-03-28T22:47:42.003Z,64.37
2019-03-28T22:50:11.528Z,64.60
2019-03-28T22:52:40.855Z,64.58
2019-03-28T22:55:10.835Z,69.80
2019-03-28T22:57:40.159Z,62.50
2019-03-28T23:00:12.096Z,65.78
2019-03-28T23:02:44.959Z,61.50
2019-03-28T23:05:14.836Z,68.12
2019-03-28T23:07:44.164Z,66.25
2019-03-28T23:10:14.136Z,65.22
2019-03-28T23:12:43.464Z,63.28
2019-03-28T23:15:13.239Z,62.23
2019-03-28T23:17:42.569Z,61.70
2019-03-28T23:20:12.540Z,68.35
2019-03-28T23:22:41.869Z,59.67
2019-03-28T23:25:11.256Z,63.73
2019-03-28T23:27:40.530Z,62.50
2019-03-28T23:30:10.203Z,64.60
2019-03-28T23:32:39.701Z,58.52
2019-03-28T23:35:09.410Z,63.13
2019-03-28T23:37:38.737Z,64.77
2019-03-28T23:40:09.615Z,65.97
2019-03-28T23:42:38.946Z,63.05
2019-03-28T23:45:11.400Z,60.70
2019-03-28T23:47:42.064Z,62.67
2019-03-28T23:50:12.477Z,64.10
2019-03-28T23:52:42.167Z,69.20
2019-03-28T23:55:13.031Z,60.85
2019-03-28T23:57:42.360Z,62.38
